sensor_id;sensor_type;location;lat;lon;timestamp;pressure;altitude;pressure_sealevel;temperature;humidity
63819;BME280;49970;54.976;73.248;2023-07-29T00:01:40;98948.72;;;21.69;80.27
63819;BME280;49970;54.976;73.248;2023-07-29T00:04:07;98941.84;;;21.73;80.43
63819;BME280;49970;54.976;73.248;2023-07-29T00:06:35;98937.91;;;21.75;79.61
63819;BME280;49970;54.976;73.248;2023-07-29T00:09:02;98940.19;;;21.78;79.79
63819;BME280;49970;54.976;73.248;2023-07-29T00:11:29;98948.06;;;21.80;79.99
63819;BME280;49970;54.976;73.248;2023-07-29T00:13:56;98944.09;;;21.82;79.43
63819;BME280;49970;54.976;73.248;2023-07-29T00:16:22;98948.66;;;21.82;80.30
63819;BME280;49970;54.976;73.248;2023-07-29T00:18:49;98941.59;;;21.87;79.72
63819;BME280;49970;54.976;73.248;2023-07-29T00:21:15;98946.56;;;21.91;79.09
63819;BME280;49970;54.976;73.248;2023-07-29T00:23:41;98946.56;;;21.91;79.44
63819;BME280;49970;54.976;73.248;2023-07-29T00:26:07;98943.41;;;21.94;79.61
63819;BME280;49970;54.976;73.248;2023-07-29T00:28:34;98945.25;;;22.00;79.58
63819;BME280;49970;54.976;73.248;2023-07-29T00:31:00;98952.72;;;21.98;81.06
63819;BME280;49970;54.976;73.248;2023-07-29T00:33:26;98938.81;;;22.01;80.16
63819;BME280;49970;54.976;73.248;2023-07-29T00:35:52;98939.41;;;22.03;80.56
63819;BME280;49970;54.976;73.248;2023-07-29T00:38:19;98933.19;;;22.02;80.62
63819;BME280;49970;54.976;73.248;2023-07-29T00:40:45;98932.94;;;22.10;80.60
63819;BME280;49970;54.976;73.248;2023-07-29T00:43:12;98935.00;;;22.15;80.26
63819;BME280;49970;54.976;73.248;2023-07-29T00:45:38;98935.88;;;22.16;79.70
63819;BME280;49970;54.976;73.248;2023-07-29T00:48:06;98937.66;;;22.22;78.35
63819;BME280;49970;54.976;73.248;2023-07-29T00:50:33;98942.00;;;22.23;77.55
63819;BME280;49970;54.976;73.248;2023-07-29T00:53:00;98923.63;;;22.13;77.98
63819;BME280;49970;54.976;73.248;2023-07-29T00:55:27;98939.72;;;22.26;78.34
63819;BME280;49970;54.976;73.248;2023-07-29T00:57:54;98919.69;;;22.16;77.40
63819;BME280;49970;54.976;73.248;2023-07-29T01:00:21;98941.16;;;22.29;78.11
63819;BME280;49970;54.976;73.248;2023-07-29T01:02:47;98945.06;;;22.33;78.15
63819;BME280;49970;54.976;73.248;2023-07-29T01:05:28;98940.06;;;22.36;77.54
63819;BME280;49970;54.976;73.248;2023-07-29T01:08:03;98938.59;;;22.41;77.07
63819;BME280;49970;54.976;73.248;2023-07-29T01:11:03;98936.31;;;22.37;75.89
63819;BME280;49970;54.976;73.248;2023-07-29T01:13:58;98926.59;;;22.36;74.12
63819;BME280;49970;54.976;73.248;2023-07-29T01:16:42;98939.41;;;22.41;75.21
63819;BME280;49970;54.976;73.248;2023-07-29T01:19:54;98969.69;;;22.43;74.96
63819;BME280;49970;54.976;73.248;2023-07-29T01:22:12;98951.41;;;22.45;75.04
63819;BME280;49970;54.976;73.248;2023-07-29T01:24:39;98946.84;;;22.46;75.49
63819;BME280;49970;54.976;73.248;2023-07-29T01:27:05;98945.53;;;22.55;75.47
63819;BME280;49970;54.976;73.248;2023-07-29T01:29:32;98952.28;;;22.64;74.78
63819;BME280;49970;54.976;73.248;2023-07-29T01:32:04;98943.91;;;22.72;74.51
63819;BME280;49970;54.976;73.248;2023-07-29T01:34:42;98940.78;;;22.75;74.80
63819;BME280;49970;54.976;73.248;2023-07-29T01:37:15;98950.84;;;22.86;75.19
63819;BME280;49970;54.976;73.248;2023-07-29T01:39:44;98936.16;;;22.82;74.55
63819;BME280;49970;54.976;73.248;2023-07-29T01:42:11;98950.00;;;22.93;74.89
63819;BME280;49970;54.976;73.248;2023-07-29T01:44:37;98948.94;;;22.94;75.69
63819;BME280;49970;54.976;73.248;2023-07-29T01:47:04;98941.00;;;22.99;75.81
63819;BME280;49970;54.976;73.248;2023-07-29T01:49:30;98944.09;;;23.02;75.25
63819;BME280;49970;54.976;73.248;2023-07-29T01:52:00;98950.69;;;23.06;75.67
63819;BME280;49970;54.976;73.248;2023-07-29T01:54:26;98947.56;;;23.09;75.08
63819;BME280;49970;54.976;73.248;2023-07-29T01:56:52;98944.19;;;23.14;76.33
63819;BME280;49970;54.976;73.248;2023-07-29T01:59:19;98943.72;;;23.17;75.75
63819;BME280;49970;54.976;73.248;2023-07-29T02:01:45;98952.44;;;23.19;75.41
63819;BME280;49970;54.976;73.248;2023-07-29T02:04:12;98947.78;;;23.26;76.34
63819;BME280;49970;54.976;73.248;2023-07-29T02:06:38;98951.53;;;23.44;76.01
63819;BME280;49970;54.976;73.248;2023-07-29T02:09:05;98948.41;;;23.65;75.82
63819;BME280;49970;54.976;73.248;2023-07-29T02:11:32;98956.03;;;23.86;76.23
63819;BME280;49970;54.976;73.248;2023-07-29T02:13:58;98962.91;;;24.01;75.46
63819;BME280;49970;54.976;73.248;2023-07-29T02:16:24;98965.47;;;24.26;74.81
63819;BME280;49970;54.976;73.248;2023-07-29T02:18:51;98962.00;;;24.37;74.55
63819;BME280;49970;54.976;73.248;2023-07-29T02:21:17;98953.31;;;24.47;74.95
63819;BME280;49970;54.976;73.248;2023-07-29T02:23:43;98953.19;;;24.53;74.82
63819;BME280;49970;54.976;73.248;2023-07-29T02:26:09;98952.66;;;24.63;76.23
63819;BME280;49970;54.976;73.248;2023-07-29T02:28:37;98948.19;;;24.80;74.60
63819;BME280;49970;54.976;73.248;2023-07-29T02:31:20;98944.53;;;24.87;74.94
63819;BME280;49970;54.976;73.248;2023-07-29T02:33:46;98942.66;;;24.99;74.61
63819;BME280;49970;54.976;73.248;2023-07-29T02:36:13;98948.41;;;25.02;75.19
63819;BME280;49970;54.976;73.248;2023-07-29T02:38:40;98945.72;;;24.91;75.06
63819;BME280;49970;54.976;73.248;2023-07-29T02:41:11;98943.13;;;24.72;76.12
63819;BME280;49970;54.976;73.248;2023-07-29T02:43:48;98952.41;;;24.65;76.79
63819;BME280;49970;54.976;73.248;2023-07-29T02:46:14;98953.00;;;24.55;76.49
63819;BME280;49970;54.976;73.248;2023-07-29T02:48:42;98946.59;;;24.49;77.70
63819;BME280;49970;54.976;73.248;2023-07-29T02:51:08;98946.47;;;24.44;77.89
63819;BME280;49970;54.976;73.248;2023-07-29T02:53:34;98946.47;;;24.44;78.22
63819;BME280;49970;54.976;73.248;2023-07-29T02:56:05;98936.13;;;24.41;78.97
63819;BME280;49970;54.976;73.248;2023-07-29T02:58:36;98949.31;;;24.49;79.03
63819;BME280;49970;54.976;73.248;2023-07-29T03:01:05;98947.91;;;24.47;79.08
63819;BME280;49970;54.976;73.248;2023-07-29T03:03:32;98941.53;;;24.41;79.27
63819;BME280;49970;54.976;73.248;2023-07-29T03:06:04;98955.31;;;24.40;80.11
63819;BME280;49970;54.976;73.248;2023-07-29T03:08:30;98955.16;;;24.34;80.55
63819;BME280;49970;54.976;73.248;2023-07-29T03:10:57;98958.31;;;24.31;80.40
63819;BME280;49970;54.976;73.248;2023-07-29T03:13:23;98951.09;;;24.14;80.85
63819;BME280;49970;54.976;73.248;2023-07-29T03:15:50;98966.69;;;24.00;81.44
63819;BME280;49970;54.976;73.248;2023-07-29T03:18:16;98954.81;;;23.82;81.84
63819;BME280;49970;54.976;73.248;2023-07-29T03:20:43;98969.28;;;23.76;82.39
63819;BME280;49970;54.976;73.248;2023-07-29T03:23:09;98966.13;;;23.79;82.74
63819;BME280;49970;54.976;73.248;2023-07-29T03:25:36;98968.66;;;23.74;82.27
63819;BME280;49970;54.976;73.248;2023-07-29T03:28:03;98982.66;;;23.71;82.42
63819;BME280;49970;54.976;73.248;2023-07-29T03:30:30;98983.53;;;23.65;83.08
63819;BME280;49970;54.976;73.248;2023-07-29T03:32:56;98985.50;;;23.58;82.87
63819;BME280;49970;54.976;73.248;2023-07-29T03:35:23;98988.63;;;23.55;83.41
63819;BME280;49970;54.976;73.248;2023-07-29T03:37:49;98999.88;;;23.52;83.34
63819;BME280;49970;54.976;73.248;2023-07-29T03:40:15;98998.09;;;23.46;83.60
63819;BME280;49970;54.976;73.248;2023-07-29T03:42:41;98997.34;;;23.39;83.21
63819;BME280;49970;54.976;73.248;2023-07-29T03:45:08;99003.41;;;23.34;84.33
63819;BME280;49970;54.976;73.248;2023-07-29T03:47:34;98995.50;;;23.32;83.68
63819;BME280;49970;54.976;73.248;2023-07-29T03:50:02;98990.09;;;23.32;84.02
63819;BME280;49970;54.976;73.248;2023-07-29T03:52:28;98995.31;;;23.34;84.41
63819;BME280;49970;54.976;73.248;2023-07-29T03:54:54;99004.81;;;23.36;84.19
63819;BME280;49970;54.976;73.248;2023-07-29T03:57:20;98996.94;;;23.35;83.95
63819;BME280;49970;54.976;73.248;2023-07-29T03:59:47;99007.38;;;23.31;83.79
63819;BME280;49970;54.976;73.248;2023-07-29T04:02:13;98992.81;;;23.32;83.49
63819;BME280;49970;54.976;73.248;2023-07-29T04:04:41;98997.34;;;23.39;83.38
63819;BME280;49970;54.976;73.248;2023-07-29T04:07:10;98996.22;;;23.46;83.43
63819;BME280;49970;54.976;73.248;2023-07-29T04:09:36;98990.50;;;23.54;83.39
63819;BME280;49970;54.976;73.248;2023-07-29T04:12:05;98989.56;;;23.67;82.99
63819;BME280;49970;54.976;73.248;2023-07-29T04:14:32;98995.03;;;23.79;83.13
63819;BME280;49970;54.976;73.248;2023-07-29T04:16:58;98990.53;;;23.91;82.21
63819;BME280;49970;54.976;73.248;2023-07-29T04:19:24;98997.72;;;23.97;82.01
63819;BME280;49970;54.976;73.248;2023-07-29T04:21:50;98995.06;;;23.91;81.87
63819;BME280;49970;54.976;73.248;2023-07-29T04:24:17;98994.06;;;24.03;80.95
63819;BME280;49970;54.976;73.248;2023-07-29T04:26:43;98991.16;;;24.05;81.15
63819;BME280;49970;54.976;73.248;2023-07-29T04:29:09;99005.06;;;24.08;81.12
63819;BME280;49970;54.976;73.248;2023-07-29T04:31:36;98987.22;;;24.19;81.24
63819;BME280;49970;54.976;73.248;2023-07-29T04:34:02;98975.97;;;24.34;80.99
63819;BME280;49970;54.976;73.248;2023-07-29T04:36:28;98988.44;;;24.35;80.26
63819;BME280;49970;54.976;73.248;2023-07-29T04:38:54;98981.03;;;24.30;80.03
63819;BME280;49970;54.976;73.248;2023-07-29T04:41:21;98983.28;;;24.33;79.47
63819;BME280;49970;54.976;73.248;2023-07-29T04:43:47;98982.66;;;24.31;80.22
63819;BME280;49970;54.976;73.248;2023-07-29T04:46:15;98991.91;;;24.42;79.86
63819;BME280;49970;54.976;73.248;2023-07-29T04:48:43;98989.41;;;24.41;79.04
63819;BME280;49970;54.976;73.248;2023-07-29T04:51:09;98992.63;;;24.19;79.54
63819;BME280;49970;54.976;73.248;2023-07-29T04:53:35;98995.06;;;24.09;79.55
63819;BME280;49970;54.976;73.248;2023-07-29T04:56:02;98985.31;;;24.08;79.87
63819;BME280;49970;54.976;73.248;2023-07-29T04:58:29;98985.50;;;24.06;79.92
63819;BME280;49970;54.976;73.248;2023-07-29T05:00:57;98989.41;;;24.10;79.50
63819;BME280;49970;54.976;73.248;2023-07-29T05:03:24;98991.97;;;24.05;79.95
63819;BME280;49970;54.976;73.248;2023-07-29T05:05:50;98990.09;;;24.06;79.91
63819;BME280;49970;54.976;73.248;2023-07-29T05:08:19;98984.69;;;24.06;79.93
63819;BME280;49970;54.976;73.248;2023-07-29T05:10:50;98983.25;;;24.03;80.19
63819;BME280;49970;54.976;73.248;2023-07-29T05:13:17;98984.44;;;23.96;80.23
63819;BME280;49970;54.976;73.248;2023-07-29T05:15:43;99003.81;;;23.93;80.22
63819;BME280;49970;54.976;73.248;2023-07-29T05:18:10;99004.19;;;23.78;80.35
63819;BME280;49970;54.976;73.248;2023-07-29T05:20:37;99010.13;;;23.68;80.90
63819;BME280;49970;54.976;73.248;2023-07-29T05:23:03;99003.34;;;23.59;81.33
63819;BME280;49970;54.976;73.248;2023-07-29T05:25:29;99015.28;;;23.51;81.44
63819;BME280;49970;54.976;73.248;2023-07-29T05:27:55;99017.75;;;23.53;81.08
63819;BME280;49970;54.976;73.248;2023-07-29T05:30:23;99022.47;;;23.57;80.67
63819;BME280;49970;54.976;73.248;2023-07-29T05:32:49;99024.97;;;23.59;80.53
63819;BME280;49970;54.976;73.248;2023-07-29T05:35:15;99016.25;;;23.57;80.58
63819;BME280;49970;54.976;73.248;2023-07-29T05:37:42;99021.22;;;23.60;80.02
63819;BME280;49970;54.976;73.248;2023-07-29T05:40:08;99013.66;;;23.69;80.11
63819;BME280;49970;54.976;73.248;2023-07-29T05:42:35;99022.59;;;23.69;79.49
63819;BME280;49970;54.976;73.248;2023-07-29T05:45:01;99020.94;;;23.68;79.11
63819;BME280;49970;54.976;73.248;2023-07-29T05:47:31;99035.38;;;23.80;78.96
63819;BME280;49970;54.976;73.248;2023-07-29T05:49:57;99031.28;;;23.90;78.83
63819;BME280;49970;54.976;73.248;2023-07-29T05:52:23;99029.22;;;23.92;78.29
63819;BME280;49970;54.976;73.248;2023-07-29T05:54:49;99035.66;;;23.72;78.60
63819;BME280;49970;54.976;73.248;2023-07-29T05:57:16;99044.72;;;23.59;78.68
63819;BME280;49970;54.976;73.248;2023-07-29T05:59:42;99053.13;;;23.51;79.37
63819;BME280;49970;54.976;73.248;2023-07-29T06:02:08;99047.31;;;23.48;78.86
63819;BME280;49970;54.976;73.248;2023-07-29T06:04:34;99060.84;;;23.48;78.62
63819;BME280;49970;54.976;73.248;2023-07-29T06:07:01;99052.16;;;23.46;78.54
63819;BME280;49970;54.976;73.248;2023-07-29T06:09:27;99048.91;;;23.37;79.16
63819;BME280;49970;54.976;73.248;2023-07-29T06:11:53;99058.50;;;23.33;79.42
63819;BME280;49970;54.976;73.248;2023-07-29T06:14:20;99061.88;;;23.28;79.22
63819;BME280;49970;54.976;73.248;2023-07-29T06:16:47;99062.03;;;23.33;79.91
63819;BME280;49970;54.976;73.248;2023-07-29T06:19:13;99060.94;;;23.41;80.12
63819;BME280;49970;54.976;73.248;2023-07-29T06:21:40;99061.06;;;23.46;78.91
63819;BME280;49970;54.976;73.248;2023-07-29T06:24:06;99075.66;;;23.45;78.54
63819;BME280;49970;54.976;73.248;2023-07-29T06:26:33;99069.38;;;23.45;79.10
63819;BME280;49970;54.976;73.248;2023-07-29T06:28:59;99063.97;;;23.45;78.92
63819;BME280;49970;54.976;73.248;2023-07-29T06:31:25;99077.00;;;23.54;78.80
63819;BME280;49970;54.976;73.248;2023-07-29T06:33:51;99066.72;;;23.63;78.24
63819;BME280;49970;54.976;73.248;2023-07-29T06:36:18;99068.06;;;23.79;77.81
63819;BME280;49970;54.976;73.248;2023-07-29T06:38:44;99062.63;;;23.79;77.68
63819;BME280;49970;54.976;73.248;2023-07-29T06:41:10;99081.78;;;23.96;78.66
63819;BME280;49970;54.976;73.248;2023-07-29T06:43:37;99077.72;;;24.05;77.44
63819;BME280;49970;54.976;73.248;2023-07-29T06:46:03;99080.41;;;24.23;77.30
63819;BME280;49970;54.976;73.248;2023-07-29T06:48:29;99076.94;;;24.34;76.75
63819;BME280;49970;54.976;73.248;2023-07-29T06:50:55;99074.38;;;24.40;76.13
63819;BME280;49970;54.976;73.248;2023-07-29T06:53:27;99084.13;;;24.59;76.76
63819;BME280;49970;54.976;73.248;2023-07-29T06:55:53;99073.09;;;24.72;75.66
63819;BME280;49970;54.976;73.248;2023-07-29T06:58:19;99086.84;;;24.59;74.17
63819;BME280;49970;54.976;73.248;2023-07-29T07:00:47;99084.56;;;24.56;74.26
63819;BME280;49970;54.976;73.248;2023-07-29T07:03:13;99082.56;;;24.51;75.03
63819;BME280;49970;54.976;73.248;2023-07-29T07:05:39;99098.81;;;24.33;75.23
63819;BME280;49970;54.976;73.248;2023-07-29T07:08:05;99091.78;;;24.14;75.69
63819;BME280;49970;54.976;73.248;2023-07-29T07:10:32;99088.53;;;24.05;76.33
63819;BME280;49970;54.976;73.248;2023-07-29T07:12:59;99093.09;;;24.23;75.96
63819;BME280;49970;54.976;73.248;2023-07-29T07:15:26;99087.00;;;24.27;76.24
63819;BME280;49970;54.976;73.248;2023-07-29T07:17:52;99082.03;;;24.24;76.51
63819;BME280;49970;54.976;73.248;2023-07-29T07:20:18;99091.31;;;24.17;75.67
63819;BME280;49970;54.976;73.248;2023-07-29T07:22:45;99097.63;;;24.10;76.24
63819;BME280;49970;54.976;73.248;2023-07-29T07:25:11;99089.75;;;24.09;76.86
63819;BME280;49970;54.976;73.248;2023-07-29T07:27:37;99092.44;;;24.09;76.34
63819;BME280;49970;54.976;73.248;2023-07-29T07:30:04;99096.66;;;24.05;76.70
63819;BME280;49970;54.976;73.248;2023-07-29T07:32:30;99094.78;;;24.05;76.90
63819;BME280;49970;54.976;73.248;2023-07-29T07:34:56;99096.97;;;23.97;76.67
63819;BME280;49970;54.976;73.248;2023-07-29T07:37:22;99104.94;;;23.92;76.72
63819;BME280;49970;54.976;73.248;2023-07-29T07:39:50;99099.19;;;23.81;76.75
63819;BME280;49970;54.976;73.248;2023-07-29T07:42:16;99095.59;;;23.69;77.56
63819;BME280;49970;54.976;73.248;2023-07-29T07:44:42;99106.19;;;23.71;77.68
63819;BME280;49970;54.976;73.248;2023-07-29T07:47:08;99101.81;;;23.70;77.67
63819;BME280;49970;54.976;73.248;2023-07-29T07:49:34;99099.16;;;23.63;77.33
63819;BME280;49970;54.976;73.248;2023-07-29T07:52:01;99105.56;;;23.69;77.45
63819;BME280;49970;54.976;73.248;2023-07-29T07:54:27;99109.72;;;23.71;77.13
63819;BME280;49970;54.976;73.248;2023-07-29T07:56:53;99106.25;;;23.82;76.83
63819;BME280;49970;54.976;73.248;2023-07-29T07:59:19;99111.50;;;23.77;76.99
63819;BME280;49970;54.976;73.248;2023-07-29T08:02:05;99122.13;;;23.79;77.93
63819;BME280;49970;54.976;73.248;2023-07-29T08:05:57;99116.94;;;23.77;77.61
63819;BME280;49970;54.976;73.248;2023-07-29T08:09:08;99104.78;;;23.61;77.39
63819;BME280;49970;54.976;73.248;2023-07-29T08:11:34;99109.34;;;23.68;78.11
63819;BME280;49970;54.976;73.248;2023-07-29T08:14:00;99118.94;;;23.82;78.58
63819;BME280;49970;54.976;73.248;2023-07-29T08:16:27;99115.28;;;23.95;77.99
63819;BME280;49970;54.976;73.248;2023-07-29T08:26:52;99119.16;;;23.62;79.02
63819;BME280;49970;54.976;73.248;2023-07-29T08:30:47;99131.22;;;23.34;78.97
63819;BME280;49970;54.976;73.248;2023-07-29T08:34:38;99130.31;;;23.16;79.26
63819;BME280;49970;54.976;73.248;2023-07-29T08:38:29;99140.69;;;23.19;79.75
63819;BME280;49970;54.976;73.248;2023-07-29T08:42:20;99138.78;;;23.26;79.66
63819;BME280;49970;54.976;73.248;2023-07-29T08:53:49;99136.47;;;23.54;77.44
63819;BME280;49970;54.976;73.248;2023-07-29T08:58:06;99135.94;;;23.64;77.48
63819;BME280;49970;54.976;73.248;2023-07-29T09:02:00;99146.75;;;23.71;77.08
63819;BME280;49970;54.976;73.248;2023-07-29T09:09:21;99150.97;;;23.85;77.04
63819;BME280;49970;54.976;73.248;2023-07-29T09:11:50;99148.50;;;24.02;77.12
63819;BME280;49970;54.976;73.248;2023-07-29T09:14:17;99144.22;;;24.13;76.71
63819;BME280;49970;54.976;73.248;2023-07-29T09:16:43;99148.34;;;24.15;75.34
63819;BME280;49970;54.976;73.248;2023-07-29T09:19:10;99150.09;;;24.09;75.32
63819;BME280;49970;54.976;73.248;2023-07-29T09:21:39;99151.81;;;24.04;75.15
63819;BME280;49970;54.976;73.248;2023-07-29T09:24:06;99149.19;;;23.97;75.37
63819;BME280;49970;54.976;73.248;2023-07-29T09:26:33;99157.06;;;23.99;76.25
63819;BME280;49970;54.976;73.248;2023-07-29T09:29:00;99165.78;;;24.01;75.29
63819;BME280;49970;54.976;73.248;2023-07-29T09:31:28;99162.16;;;23.89;75.95
63819;BME280;49970;54.976;73.248;2023-07-29T09:33:59;99165.53;;;23.84;76.49
63819;BME280;49970;54.976;73.248;2023-07-29T09:36:27;99162.88;;;23.77;76.38
63819;BME280;49970;54.976;73.248;2023-07-29T09:38:55;99154.19;;;23.75;76.53
63819;BME280;49970;54.976;73.248;2023-07-29T09:41:26;99162.06;;;23.77;76.75
63819;BME280;49970;54.976;73.248;2023-07-29T09:43:56;99156.22;;;23.80;76.46
63819;BME280;49970;54.976;73.248;2023-07-29T09:46:25;99163.03;;;23.82;75.64
63819;BME280;49970;54.976;73.248;2023-07-29T09:48:54;99165.75;;;23.82;76.06
63819;BME280;49970;54.976;73.248;2023-07-29T09:51:24;99159.75;;;23.80;76.05
63819;BME280;49970;54.976;73.248;2023-07-29T09:53:50;99171.34;;;23.88;75.76
63819;BME280;49970;54.976;73.248;2023-07-29T09:56:26;99149.16;;;23.79;75.01
63819;BME280;49970;54.976;73.248;2023-07-29T09:58:56;99164.72;;;23.83;74.78
63819;BME280;49970;54.976;73.248;2023-07-29T10:01:23;99159.47;;;23.89;75.40
63819;BME280;49970;54.976;73.248;2023-07-29T10:03:49;99163.53;;;23.98;75.52
63819;BME280;49970;54.976;73.248;2023-07-29T10:06:17;99149.84;;;23.93;74.92
63819;BME280;49970;54.976;73.248;2023-07-29T10:08:43;99163.28;;;23.99;75.23
63819;BME280;49970;54.976;73.248;2023-07-29T10:11:11;99160.97;;;24.03;75.25
63819;BME280;49970;54.976;73.248;2023-07-29T10:13:38;99164.81;;;24.14;75.29
63819;BME280;49970;54.976;73.248;2023-07-29T10:16:05;99160.16;;;24.21;75.69
63819;BME280;49970;54.976;73.248;2023-07-29T10:18:32;99164.72;;;24.20;75.32
63819;BME280;49970;54.976;73.248;2023-07-29T10:21:01;99167.03;;;24.42;75.19
63819;BME280;49970;54.976;73.248;2023-07-29T10:23:34;99149.34;;;24.39;74.42
63819;BME280;49970;54.976;73.248;2023-07-29T10:26:09;99164.13;;;24.36;74.23
63819;BME280;49970;54.976;73.248;2023-07-29T10:28:40;99164.78;;;24.39;74.38
63819;BME280;49970;54.976;73.248;2023-07-29T10:31:07;99170.94;;;24.46;74.02
63819;BME280;49970;54.976;73.248;2023-07-29T10:33:34;99159.19;;;24.33;74.20
63819;BME280;49970;54.976;73.248;2023-07-29T10:36:01;99161.94;;;24.27;74.06
63819;BME280;49970;54.976;73.248;2023-07-29T10:38:28;99166.78;;;24.25;74.24
63819;BME280;49970;54.976;73.248;2023-07-29T10:40:55;99142.88;;;24.22;74.48
63819;BME280;49970;54.976;73.248;2023-07-29T10:45:53;99142.56;;;24.30;72.10
63819;BME280;49970;54.976;73.248;2023-07-29T10:51:27;99150.06;;;24.28;70.97
63819;BME280;49970;54.976;73.248;2023-07-29T10:54:18;99159.88;;;24.29;71.50
63819;BME280;49970;54.976;73.248;2023-07-29T10:56:49;99162.06;;;24.39;70.99
63819;BME280;49970;54.976;73.248;2023-07-29T11:01:45;99155.53;;;24.46;71.16
63819;BME280;49970;54.976;73.248;2023-07-29T11:09:40;99139.03;;;24.48;71.59
63819;BME280;49970;54.976;73.248;2023-07-29T11:12:42;99166.31;;;24.65;71.38
63819;BME280;49970;54.976;73.248;2023-07-29T11:15:28;99146.97;;;24.61;71.16
63819;BME280;49970;54.976;73.248;2023-07-29T11:17:56;99166.06;;;24.66;70.83
63819;BME280;49970;54.976;73.248;2023-07-29T11:20:25;99163.59;;;24.65;71.05
63819;BME280;49970;54.976;73.248;2023-07-29T11:22:56;99169.84;;;24.65;71.68
63819;BME280;49970;54.976;73.248;2023-07-29T11:25:24;99160.91;;;24.65;71.24
63819;BME280;49970;54.976;73.248;2023-07-29T11:27:52;99153.59;;;24.65;70.97
63819;BME280;49970;54.976;73.248;2023-07-29T11:30:19;99159.13;;;24.70;70.31
63819;BME280;49970;54.976;73.248;2023-07-29T11:32:46;99157.88;;;24.73;70.60
63819;BME280;49970;54.976;73.248;2023-07-29T11:35:17;99169.44;;;24.80;70.83
63819;BME280;49970;54.976;73.248;2023-07-29T11:37:49;99159.50;;;24.74;69.99
63819;BME280;49970;54.976;73.248;2023-07-29T11:40:18;99176.13;;;24.77;70.44
63819;BME280;49970;54.976;73.248;2023-07-29T11:42:49;99161.94;;;24.64;69.96
63819;BME280;49970;54.976;73.248;2023-07-29T11:45:17;99176.59;;;24.74;69.71
63819;BME280;49970;54.976;73.248;2023-07-29T11:47:43;99192.75;;;24.81;69.05
63819;BME280;49970;54.976;73.248;2023-07-29T11:50:11;99198.31;;;24.86;67.98
63819;BME280;49970;54.976;73.248;2023-07-29T11:52:44;99190.63;;;24.83;68.76
63819;BME280;49970;54.976;73.248;2023-07-29T11:55:14;99195.06;;;24.96;69.04
63819;BME280;49970;54.976;73.248;2023-07-29T11:57:42;99195.78;;;25.03;68.15
63819;BME280;49970;54.976;73.248;2023-07-29T12:00:10;99196.03;;;25.01;66.70
63819;BME280;49970;54.976;73.248;2023-07-29T12:02:39;99200.00;;;24.99;67.47
63819;BME280;49970;54.976;73.248;2023-07-29T12:05:07;99196.03;;;25.01;67.01
63819;BME280;49970;54.976;73.248;2023-07-29T12:07:34;99192.50;;;25.01;67.96
63819;BME280;49970;54.976;73.248;2023-07-29T12:10:03;99187.91;;;25.01;67.77
63819;BME280;49970;54.976;73.248;2023-07-29T12:12:29;99178.34;;;24.99;67.66
63819;BME280;49970;54.976;73.248;2023-07-29T12:14:56;99187.66;;;25.03;68.29
63819;BME280;49970;54.976;73.248;2023-07-29T12:17:22;99173.91;;;25.04;68.52
63819;BME280;49970;54.976;73.248;2023-07-29T12:19:49;99168.69;;;25.03;68.60
63819;BME280;49970;54.976;73.248;2023-07-29T12:22:19;99169.63;;;24.97;67.89
63819;BME280;49970;54.976;73.248;2023-07-29T12:24:45;99169.63;;;24.97;67.95
63819;BME280;49970;54.976;73.248;2023-07-29T12:27:13;99171.72;;;24.95;67.79
63819;BME280;49970;54.976;73.248;2023-07-29T12:29:44;99167.97;;;24.96;67.88
63819;BME280;49970;54.976;73.248;2023-07-29T12:32:12;99158.41;;;24.93;66.55
63819;BME280;49970;54.976;73.248;2023-07-29T12:34:39;99171.34;;;24.91;66.52
63819;BME280;49970;54.976;73.248;2023-07-29T12:37:06;99161.31;;;24.80;66.52
63819;BME280;49970;54.976;73.248;2023-07-29T12:39:34;99168.75;;;24.84;67.23
63819;BME280;49970;54.976;73.248;2023-07-29T12:42:02;99165.53;;;24.76;68.00
63819;BME280;49970;54.976;73.248;2023-07-29T12:44:32;99184.72;;;24.74;68.34
63819;BME280;49970;54.976;73.248;2023-07-29T12:47:01;99182.66;;;24.58;69.03
63819;BME280;49970;54.976;73.248;2023-07-29T12:49:29;99181.91;;;24.51;69.50
63819;BME280;49970;54.976;73.248;2023-07-29T12:51:56;99178.44;;;24.44;69.60
63819;BME280;49970;54.976;73.248;2023-07-29T12:54:22;99180.09;;;24.45;69.98
63819;BME280;49970;54.976;73.248;2023-07-29T12:56:49;99176.69;;;24.49;69.89
63819;BME280;49970;54.976;73.248;2023-07-29T12:59:15;99174.97;;;24.55;69.31
63819;BME280;49970;54.976;73.248;2023-07-29T13:01:42;99177.25;;;24.58;69.09
63819;BME280;49970;54.976;73.248;2023-07-29T13:04:10;99189.72;;;24.59;68.30
63819;BME280;49970;54.976;73.248;2023-07-29T13:06:36;99179.09;;;24.57;68.57
63819;BME280;49970;54.976;73.248;2023-07-29T13:09:02;99180.59;;;24.53;68.41
63819;BME280;49970;54.976;73.248;2023-07-29T13:11:29;99178.00;;;24.47;69.03
63819;BME280;49970;54.976;73.248;2023-07-29T13:25:03;99198.00;;;24.46;68.97
63819;BME280;49970;54.976;73.248;2023-07-29T13:27:29;99178.13;;;24.33;68.78
63819;BME280;49970;54.976;73.248;2023-07-29T13:29:56;99200.38;;;24.35;69.00
63819;BME280;49970;54.976;73.248;2023-07-29T13:32:22;99208.44;;;24.42;69.42
63819;BME280;49970;54.976;73.248;2023-07-29T13:34:49;99188.56;;;24.30;69.33
63819;BME280;49970;54.976;73.248;2023-07-29T13:37:15;99203.06;;;24.35;68.93
63819;BME280;49970;54.976;73.248;2023-07-29T13:39:41;99208.94;;;24.32;68.93
63819;BME280;49970;54.976;73.248;2023-07-29T13:42:09;99217.97;;;24.26;68.45
63819;BME280;49970;54.976;73.248;2023-07-29T13:44:35;99199.75;;;24.15;68.50
63819;BME280;49970;54.976;73.248;2023-07-29T13:47:01;99206.22;;;24.14;68.94
63819;BME280;49970;54.976;73.248;2023-07-29T13:49:27;99201.63;;;24.15;69.24
63819;BME280;49970;54.976;73.248;2023-07-29T13:51:54;99196.47;;;24.13;69.88